sensor_id;sensor_type;location;lat;lon;timestamp;P1;durP1;ratioP1;P2;durP2;ratioP2
25663;SDS011;13522;50.018;20.014;2023-02-02T00:01:14;6.03;;;3.00;;
25663;SDS011;13522;50.018;20.014;2023-02-02T00:04:27;7.38;;;2.80;;
25663;SDS011;13522;50.018;20.014;2023-02-02T00:07:42;8.00;;;3.13;;
25663;SDS011;13522;50.018;20.014;2023-02-02T00:11:03;5.83;;;2.60;;
25663;SDS011;13522;50.018;20.014;2023-02-02T00:14:16;5.83;;;2.80;;
25663;SDS011;13522;50.018;20.014;2023-02-02T00:17:29;5.43;;;2.48;;
25663;SDS011;13522;50.018;20.014;2023-02-02T00:20:41;6.30;;;2.43;;
25663;SDS011;13522;50.018;20.014;2023-02-02T00:23:53;4.63;;;2.03;;
25663;SDS011;13522;50.018;20.014;2023-02-02T00:27:34;5.08;;;2.80;;
25663;SDS011;13522;50.018;20.014;2023-02-02T00:30:47;5.18;;;2.78;;
25663;SDS011;13522;50.018;20.014;2023-02-02T00:33:59;4.85;;;2.38;;
25663;SDS011;13522;50.018;20.014;2023-02-02T00:37:12;3.55;;;1.80;;
25663;SDS011;13522;50.018;20.014;2023-02-02T00:40:24;5.10;;;2.20;;
25663;SDS011;13522;50.018;20.014;2023-02-02T00:43:38;3.35;;;1.88;;
25663;SDS011;13522;50.018;20.014;2023-02-02T00:46:53;4.28;;;2.00;;
25663;SDS011;13522;50.018;20.014;2023-02-02T00:50:09;3.75;;;1.80;;
25663;SDS011;13522;50.018;20.014;2023-02-02T00:53:25;3.55;;;1.60;;
25663;SDS011;13522;50.018;20.014;2023-02-02T00:56:39;3.63;;;2.15;;
25663;SDS011;13522;50.018;20.014;2023-02-02T00:59:52;2.98;;;1.55;;
25663;SDS011;13522;50.018;20.014;2023-02-02T01:03:04;4.45;;;1.93;;
25663;SDS011;13522;50.018;20.014;2023-02-02T01:06:17;2.63;;;1.83;;
25663;SDS011;13522;50.018;20.014;2023-02-02T01:10:00;3.08;;;1.98;;
25663;SDS011;13522;50.018;20.014;2023-02-02T01:13:13;3.35;;;1.75;;
25663;SDS011;13522;50.018;20.014;2023-02-02T01:16:25;2.98;;;1.80;;
25663;SDS011;13522;50.018;20.014;2023-02-02T01:19:37;5.00;;;2.05;;
25663;SDS011;13522;50.018;20.014;2023-02-02T01:22:52;3.18;;;1.60;;
25663;SDS011;13522;50.018;20.014;2023-02-02T01:26:05;2.58;;;1.70;;
25663;SDS011;13522;50.018;20.014;2023-02-02T01:29:20;4.40;;;2.20;;
25663;SDS011;13522;50.018;20.014;2023-02-02T01:32:33;3.05;;;2.00;;
25663;SDS011;13522;50.018;20.014;2023-02-02T01:35:46;3.38;;;1.80;;
25663;SDS011;13522;50.018;20.014;2023-02-02T01:38:59;3.00;;;1.80;;
25663;SDS011;13522;50.018;20.014;2023-02-02T01:42:14;2.85;;;2.03;;
25663;SDS011;13522;50.018;20.014;2023-02-02T01:45:30;3.00;;;1.80;;
25663;SDS011;13522;50.018;20.014;2023-02-02T01:48:45;4.23;;;1.90;;
25663;SDS011;13522;50.018;20.014;2023-02-02T01:51:59;4.53;;;2.20;;
25663;SDS011;13522;50.018;20.014;2023-02-02T01:55:13;4.15;;;2.33;;
25663;SDS011;13522;50.018;20.014;2023-02-02T01:58:30;3.68;;;2.30;;
25663;SDS011;13522;50.018;20.014;2023-02-02T02:01:46;4.90;;;2.75;;
25663;SDS011;13522;50.018;20.014;2023-02-02T02:05:01;4.73;;;2.40;;
25663;SDS011;13522;50.018;20.014;2023-02-02T02:08:17;4.75;;;2.25;;
25663;SDS011;13522;50.018;20.014;2023-02-02T02:11:32;3.98;;;2.15;;
25663;SDS011;13522;50.018;20.014;2023-02-02T02:14:46;4.50;;;2.53;;
25663;SDS011;13522;50.018;20.014;2023-02-02T02:18:17;4.53;;;2.60;;
25663;SDS011;13522;50.018;20.014;2023-02-02T02:21:39;3.93;;;2.00;;
25663;SDS011;13522;50.018;20.014;2023-02-02T02:25:24;4.15;;;2.30;;
25663;SDS011;13522;50.018;20.014;2023-02-02T02:32:57;3.10;;;2.00;;
25663;SDS011;13522;50.018;20.014;2023-02-02T02:36:14;4.25;;;2.23;;
25663;SDS011;13522;50.018;20.014;2023-02-02T02:39:33;5.13;;;2.25;;
25663;SDS011;13522;50.018;20.014;2023-02-02T02:42:52;3.30;;;2.00;;
25663;SDS011;13522;50.018;20.014;2023-02-02T02:46:15;3.23;;;1.95;;
25663;SDS011;13522;50.018;20.014;2023-02-02T02:49:28;4.75;;;1.95;;
25663;SDS011;13522;50.018;20.014;2023-02-02T02:52:42;3.55;;;2.10;;
25663;SDS011;13522;50.018;20.014;2023-02-02T02:55:59;4.75;;;1.93;;
25663;SDS011;13522;50.018;20.014;2023-02-02T02:59:18;4.30;;;2.40;;
25663;SDS011;13522;50.018;20.014;2023-02-02T03:02:39;5.48;;;2.80;;
25663;SDS011;13522;50.018;20.014;2023-02-02T03:06:04;4.85;;;2.30;;
25663;SDS011;13522;50.018;20.014;2023-02-02T03:09:17;4.53;;;2.63;;
25663;SDS011;13522;50.018;20.014;2023-02-02T03:12:33;5.00;;;2.70;;
25663;SDS011;13522;50.018;20.014;2023-02-02T03:15:56;4.18;;;2.60;;
25663;SDS011;13522;50.018;20.014;2023-02-02T03:19:09;6.85;;;3.30;;
25663;SDS011;13522;50.018;20.014;2023-02-02T03:22:23;6.38;;;3.40;;
25663;SDS011;13522;50.018;20.014;2023-02-02T03:25:37;7.35;;;3.18;;
25663;SDS011;13522;50.018;20.014;2023-02-02T03:28:51;8.58;;;3.60;;
25663;SDS011;13522;50.018;20.014;2023-02-02T03:32:06;7.60;;;3.40;;
25663;SDS011;13522;50.018;20.014;2023-02-02T03:35:19;8.68;;;4.08;;
25663;SDS011;13522;50.018;20.014;2023-02-02T03:38:32;10.00;;;3.85;;
25663;SDS011;13522;50.018;20.014;2023-02-02T03:41:44;8.60;;;3.68;;
25663;SDS011;13522;50.018;20.014;2023-02-02T03:44:56;8.93;;;3.88;;
25663;SDS011;13522;50.018;20.014;2023-02-02T03:48:17;6.35;;;3.30;;
25663;SDS011;13522;50.018;20.014;2023-02-02T03:51:32;8.98;;;3.73;;
25663;SDS011;13522;50.018;20.014;2023-02-02T03:54:46;5.15;;;3.00;;
25663;SDS011;13522;50.018;20.014;2023-02-02T03:58:09;7.25;;;3.10;;
25663;SDS011;13522;50.018;20.014;2023-02-02T04:01:30;6.33;;;3.35;;
25663;SDS011;13522;50.018;20.014;2023-02-02T04:04:42;9.30;;;3.45;;
25663;SDS011;13522;50.018;20.014;2023-02-02T04:07:55;9.18;;;3.50;;
25663;SDS011;13522;50.018;20.014;2023-02-02T04:11:16;8.63;;;3.68;;
25663;SDS011;13522;50.018;20.014;2023-02-02T04:14:28;6.95;;;3.40;;
25663;SDS011;13522;50.018;20.014;2023-02-02T04:17:41;8.65;;;3.35;;
25663;SDS011;13522;50.018;20.014;2023-02-02T04:20:57;6.43;;;3.13;;
25663;SDS011;13522;50.018;20.014;2023-02-02T04:24:12;11.90;;;3.20;;
25663;SDS011;13522;50.018;20.014;2023-02-02T04:27:25;8.70;;;3.30;;
25663;SDS011;13522;50.018;20.014;2023-02-02T04:31:08;8.85;;;3.13;;
25663;SDS011;13522;50.018;20.014;2023-02-02T04:34:49;9.75;;;2.70;;
25663;SDS011;13522;50.018;20.014;2023-02-02T04:38:30;9.30;;;3.13;;
25663;SDS011;13522;50.018;20.014;2023-02-02T04:42:24;6.70;;;2.90;;
25663;SDS011;13522;50.018;20.014;2023-02-02T04:45:38;9.45;;;3.50;;
25663;SDS011;13522;50.018;20.014;2023-02-02T04:49:44;10.13;;;3.33;;
25663;SDS011;13522;50.018;20.014;2023-02-02T04:53:12;9.85;;;3.98;;
25663;SDS011;13522;50.018;20.014;2023-02-02T04:56:27;11.18;;;3.70;;
25663;SDS011;13522;50.018;20.014;2023-02-02T04:59:39;11.73;;;4.10;;
25663;SDS011;13522;50.018;20.014;2023-02-02T05:02:52;8.35;;;2.80;;
25663;SDS011;13522;50.018;20.014;2023-02-02T05:06:04;10.53;;;3.48;;
25663;SDS011;13522;50.018;20.014;2023-02-02T05:09:19;11.48;;;4.13;;
25663;SDS011;13522;50.018;20.014;2023-02-02T05:12:31;12.20;;;3.80;;
25663;SDS011;13522;50.018;20.014;2023-02-02T05:15:43;9.05;;;3.23;;
25663;SDS011;13522;50.018;20.014;2023-02-02T05:18:55;6.38;;;2.90;;
25663;SDS011;13522;50.018;20.014;2023-02-02T05:22:07;10.63;;;3.78;;
25663;SDS011;13522;50.018;20.014;2023-02-02T05:25:20;10.30;;;3.18;;
25663;SDS011;13522;50.018;20.014;2023-02-02T05:28:45;10.23;;;3.23;;
25663;SDS011;13522;50.018;20.014;2023-02-02T05:31:58;9.88;;;2.98;;
25663;SDS011;13522;50.018;20.014;2023-02-02T05:35:10;15.00;;;3.83;;
25663;SDS011;13522;50.018;20.014;2023-02-02T05:38:23;10.58;;;2.98;;
25663;SDS011;13522;50.018;20.014;2023-02-02T05:41:35;11.95;;;3.20;;
25663;SDS011;13522;50.018;20.014;2023-02-02T05:44:47;8.13;;;3.33;;
25663;SDS011;13522;50.018;20.014;2023-02-02T06:44:40;14.48;;;3.65;;
25663;SDS011;13522;50.018;20.014;2023-02-02T06:47:52;8.73;;;2.80;;
25663;SDS011;13522;50.018;20.014;2023-02-02T06:51:30;10.58;;;2.65;;
25663;SDS011;13522;50.018;20.014;2023-02-02T06:57:42;13.10;;;3.03;;
25663;SDS011;13522;50.018;20.014;2023-02-02T07:00:59;9.73;;;3.35;;
25663;SDS011;13522;50.018;20.014;2023-02-02T07:04:13;6.55;;;2.45;;
25663;SDS011;13522;50.018;20.014;2023-02-02T07:10:28;7.48;;;2.20;;
25663;SDS011;13522;50.018;20.014;2023-02-02T07:13:43;7.15;;;2.15;;
25663;SDS011;13522;50.018;20.014;2023-02-02T07:16:56;11.88;;;2.73;;
25663;SDS011;13522;50.018;20.014;2023-02-02T07:20:09;7.30;;;2.63;;
25663;SDS011;13522;50.018;20.014;2023-02-02T07:23:22;10.73;;;2.68;;
25663;SDS011;13522;50.018;20.014;2023-02-02T07:26:34;8.23;;;2.70;;
25663;SDS011;13522;50.018;20.014;2023-02-02T07:29:46;7.98;;;2.45;;
25663;SDS011;13522;50.018;20.014;2023-02-02T07:32:58;8.15;;;2.95;;
25663;SDS011;13522;50.018;20.014;2023-02-02T07:36:11;7.45;;;2.70;;
25663;SDS011;13522;50.018;20.014;2023-02-02T07:39:26;10.88;;;2.85;;
25663;SDS011;13522;50.018;20.014;2023-02-02T07:42:38;9.08;;;2.83;;
25663;SDS011;13522;50.018;20.014;2023-02-02T07:45:52;7.75;;;2.60;;
25663;SDS011;13522;50.018;20.014;2023-02-02T07:49:12;8.40;;;2.53;;
25663;SDS011;13522;50.018;20.014;2023-02-02T07:52:26;7.75;;;2.75;;
25663;SDS011;13522;50.018;20.014;2023-02-02T07:55:39;9.10;;;2.80;;
25663;SDS011;13522;50.018;20.014;2023-02-02T07:58:52;9.28;;;2.50;;
25663;SDS011;13522;50.018;20.014;2023-02-02T08:02:05;8.78;;;2.50;;
25663;SDS011;13522;50.018;20.014;2023-02-02T08:05:18;6.73;;;2.28;;
25663;SDS011;13522;50.018;20.014;2023-02-02T08:08:31;8.10;;;3.15;;
25663;SDS011;13522;50.018;20.014;2023-02-02T08:11:43;6.75;;;2.80;;
25663;SDS011;13522;50.018;20.014;2023-02-02T08:14:55;8.38;;;2.80;;
25663;SDS011;13522;50.018;20.014;2023-02-02T08:18:07;4.40;;;2.00;;
25663;SDS011;13522;50.018;20.014;2023-02-02T08:21:20;6.43;;;2.20;;
25663;SDS011;13522;50.018;20.014;2023-02-02T08:24:32;6.65;;;2.63;;
25663;SDS011;13522;50.018;20.014;2023-02-02T08:27:46;6.13;;;2.10;;
25663;SDS011;13522;50.018;20.014;2023-02-02T08:31:04;7.80;;;3.00;;
25663;SDS011;13522;50.018;20.014;2023-02-02T08:34:18;8.13;;;2.60;;
25663;SDS011;13522;50.018;20.014;2023-02-02T08:37:30;6.80;;;2.40;;
25663;SDS011;13522;50.018;20.014;2023-02-02T08:40:42;5.63;;;2.40;;
25663;SDS011;13522;50.018;20.014;2023-02-02T08:43:56;6.45;;;2.95;;
25663;SDS011;13522;50.018;20.014;2023-02-02T08:47:08;8.13;;;2.75;;
25663;SDS011;13522;50.018;20.014;2023-02-02T08:50:20;8.80;;;3.55;;
25663;SDS011;13522;50.018;20.014;2023-02-02T08:53:32;7.70;;;2.65;;
25663;SDS011;13522;50.018;20.014;2023-02-02T08:56:45;8.05;;;2.70;;
25663;SDS011;13522;50.018;20.014;2023-02-02T08:59:57;7.80;;;3.00;;
25663;SDS011;13522;50.018;20.014;2023-02-02T09:03:10;9.70;;;2.78;;
25663;SDS011;13522;50.018;20.014;2023-02-02T09:06:23;7.98;;;2.70;;
25663;SDS011;13522;50.018;20.014;2023-02-02T09:09:38;7.43;;;2.78;;
25663;SDS011;13522;50.018;20.014;2023-02-02T09:12:50;7.23;;;2.90;;
25663;SDS011;13522;50.018;20.014;2023-02-02T09:16:03;7.68;;;2.83;;
25663;SDS011;13522;50.018;20.014;2023-02-02T09:19:18;6.33;;;3.00;;
25663;SDS011;13522;50.018;20.014;2023-02-02T09:22:30;7.73;;;2.48;;
25663;SDS011;13522;50.018;20.014;2023-02-02T09:25:42;5.48;;;2.23;;
25663;SDS011;13522;50.018;20.014;2023-02-02T09:28:54;6.53;;;2.10;;
25663;SDS011;13522;50.018;20.014;2023-02-02T09:32:09;6.93;;;2.25;;
25663;SDS011;13522;50.018;20.014;2023-02-02T09:35:21;9.90;;;3.18;;
25663;SDS011;13522;50.018;20.014;2023-02-02T09:38:33;5.45;;;2.30;;
25663;SDS011;13522;50.018;20.014;2023-02-02T09:41:52;8.03;;;2.93;;
25663;SDS011;13522;50.018;20.014;2023-02-02T09:45:38;6.25;;;2.30;;
25663;SDS011;13522;50.018;20.014;2023-02-02T09:48:56;8.75;;;2.85;;
25663;SDS011;13522;50.018;20.014;2023-02-02T09:52:13;9.63;;;3.10;;
25663;SDS011;13522;50.018;20.014;2023-02-02T09:55:32;10.75;;;3.30;;
25663;SDS011;13522;50.018;20.014;2023-02-02T09:58:48;8.03;;;2.95;;
25663;SDS011;13522;50.018;20.014;2023-02-02T10:02:05;8.98;;;2.70;;
25663;SDS011;13522;50.018;20.014;2023-02-02T10:05:26;11.53;;;3.33;;
25663;SDS011;13522;50.018;20.014;2023-02-02T10:08:43;8.15;;;2.78;;
25663;SDS011;13522;50.018;20.014;2023-02-02T10:12:01;9.43;;;3.50;;
25663;SDS011;13522;50.018;20.014;2023-02-02T10:15:25;8.15;;;2.90;;
25663;SDS011;13522;50.018;20.014;2023-02-02T10:18:42;6.40;;;2.78;;
25663;SDS011;13522;50.018;20.014;2023-02-02T10:21:59;8.95;;;3.08;;
25663;SDS011;13522;50.018;20.014;2023-02-02T10:25:17;9.75;;;3.28;;
25663;SDS011;13522;50.018;20.014;2023-02-02T10:28:36;7.28;;;3.23;;
25663;SDS011;13522;50.018;20.014;2023-02-02T10:32:05;7.23;;;2.98;;
25663;SDS011;13522;50.018;20.014;2023-02-02T10:35:28;7.90;;;2.75;;
25663;SDS011;13522;50.018;20.014;2023-02-02T10:38:49;4.70;;;2.75;;
25663;SDS011;13522;50.018;20.014;2023-02-02T10:42:09;4.95;;;2.70;;
25663;SDS011;13522;50.018;20.014;2023-02-02T10:45:26;6.68;;;2.93;;
25663;SDS011;13522;50.018;20.014;2023-02-02T10:48:38;5.28;;;2.68;;
25663;SDS011;13522;50.018;20.014;2023-02-02T10:51:56;8.63;;;2.85;;
25663;SDS011;13522;50.018;20.014;2023-02-02T10:55:18;8.15;;;3.30;;
25663;SDS011;13522;50.018;20.014;2023-02-02T10:58:36;7.75;;;3.33;;
25663;SDS011;13522;50.018;20.014;2023-02-02T11:01:54;7.08;;;3.63;;
25663;SDS011;13522;50.018;20.014;2023-02-02T11:05:18;6.93;;;2.90;;
25663;SDS011;13522;50.018;20.014;2023-02-02T11:08:44;6.73;;;3.23;;
25663;SDS011;13522;50.018;20.014;2023-02-02T11:12:03;6.03;;;3.38;;
25663;SDS011;13522;50.018;20.014;2023-02-02T11:15:24;8.00;;;4.08;;
25663;SDS011;13522;50.018;20.014;2023-02-02T11:18:38;5.63;;;2.98;;
25663;SDS011;13522;50.018;20.014;2023-02-02T11:21:53;6.33;;;3.38;;
25663;SDS011;13522;50.018;20.014;2023-02-02T11:28:31;7.88;;;4.10;;
25663;SDS011;13522;50.018;20.014;2023-02-02T11:31:44;10.55;;;3.80;;
25663;SDS011;13522;50.018;20.014;2023-02-02T11:35:17;9.58;;;4.10;;
25663;SDS011;13522;50.018;20.014;2023-02-02T11:38:32;8.33;;;4.25;;
25663;SDS011;13522;50.018;20.014;2023-02-02T11:41:44;9.38;;;3.85;;
25663;SDS011;13522;50.018;20.014;2023-02-02T11:44:56;8.80;;;4.68;;
25663;SDS011;13522;50.018;20.014;2023-02-02T11:48:13;11.48;;;4.60;;
25663;SDS011;13522;50.018;20.014;2023-02-02T11:51:29;9.85;;;4.85;;
25663;SDS011;13522;50.018;20.014;2023-02-02T11:54:44;9.15;;;4.43;;
25663;SDS011;13522;50.018;20.014;2023-02-02T12:01:35;9.88;;;4.60;;
25663;SDS011;13522;50.018;20.014;2023-02-02T12:04:49;9.48;;;4.68;;
25663;SDS011;13522;50.018;20.014;2023-02-02T12:08:04;9.63;;;4.60;;
25663;SDS011;13522;50.018;20.014;2023-02-02T12:11:23;10.68;;;4.95;;
25663;SDS011;13522;50.018;20.014;2023-02-02T12:14:46;10.10;;;4.98;;
25663;SDS011;13522;50.018;20.014;2023-02-02T12:18:04;11.48;;;4.65;;
25663;SDS011;13522;50.018;20.014;2023-02-02T12:21:26;12.03;;;4.95;;
25663;SDS011;13522;50.018;20.014;2023-02-02T12:24:47;12.78;;;5.30;;
25663;SDS011;13522;50.018;20.014;2023-02-02T12:28:04;9.68;;;4.70;;
25663;SDS011;13522;50.018;20.014;2023-02-02T12:31:26;10.43;;;4.78;;
25663;SDS011;13522;50.018;20.014;2023-02-02T12:34:46;9.98;;;4.28;;
25663;SDS011;13522;50.018;20.014;2023-02-02T12:38:10;7.85;;;4.03;;
25663;SDS011;13522;50.018;20.014;2023-02-02T12:41:32;8.20;;;3.90;;
25663;SDS011;13522;50.018;20.014;2023-02-02T12:44:57;7.08;;;3.88;;
25663;SDS011;13522;50.018;20.014;2023-02-02T12:48:38;7.78;;;3.33;;
25663;SDS011;13522;50.018;20.014;2023-02-02T12:52:19;7.18;;;3.40;;
25663;SDS011;13522;50.018;20.014;2023-02-02T12:55:40;7.75;;;2.95;;
25663;SDS011;13522;50.018;20.014;2023-02-02T12:58:59;6.93;;;3.05;;
25663;SDS011;13522;50.018;20.014;2023-02-02T13:02:18;6.63;;;3.00;;
25663;SDS011;13522;50.018;20.014;2023-02-02T13:05:41;5.10;;;2.83;;
25663;SDS011;13522;50.018;20.014;2023-02-02T13:09:04;6.25;;;3.38;;
25663;SDS011;13522;50.018;20.014;2023-02-02T13:12:22;4.55;;;2.60;;
25663;SDS011;13522;50.018;20.014;2023-02-02T13:15:37;6.28;;;2.63;;
25663;SDS011;13522;50.018;20.014;2023-02-02T13:18:54;5.73;;;2.68;;
25663;SDS011;13522;50.018;20.014;2023-02-02T13:25:25;7.68;;;3.10;;
25663;SDS011;13522;50.018;20.014;2023-02-02T13:28:44;10.93;;;3.05;;
25663;SDS011;13522;50.018;20.014;2023-02-02T13:32:01;7.20;;;2.48;;
25663;SDS011;13522;50.018;20.014;2023-02-02T13:35:19;6.60;;;3.00;;
25663;SDS011;13522;50.018;20.014;2023-02-02T13:38:34;7.83;;;3.55;;
25663;SDS011;13522;50.018;20.014;2023-02-02T13:41:48;10.55;;;3.43;;
25663;SDS011;13522;50.018;20.014;2023-02-02T13:45:05;7.50;;;3.45;;
25663;SDS011;13522;50.018;20.014;2023-02-02T13:48:38;6.70;;;3.78;;
25663;SDS011;13522;50.018;20.014;2023-02-02T13:52:07;8.18;;;3.50;;
25663;SDS011;13522;50.018;20.014;2023-02-02T13:59:43;10.85;;;3.48;;
25663;SDS011;13522;50.018;20.014;2023-02-02T14:03:03;6.53;;;3.15;;
25663;SDS011;13522;50.018;20.014;2023-02-02T14:06:34;8.70;;;3.95;;
25663;SDS011;13522;50.018;20.014;2023-02-02T14:09:59;7.23;;;3.48;;
25663;SDS011;13522;50.018;20.014;2023-02-02T14:13:15;6.43;;;3.10;;
25663;SDS011;13522;50.018;20.014;2023-02-02T14:16:57;6.90;;;3.53;;
25663;SDS011;13522;50.018;20.014;2023-02-02T14:20:37;11.95;;;4.55;;
25663;SDS011;13522;50.018;20.014;2023-02-02T14:23:55;8.13;;;3.68;;
25663;SDS011;13522;50.018;20.014;2023-02-02T14:31:25;9.85;;;4.70;;
25663;SDS011;13522;50.018;20.014;2023-02-02T14:39:03;11.38;;;4.58;;
25663;SDS011;13522;50.018;20.014;2023-02-02T14:42:37;11.88;;;5.08;;
25663;SDS011;13522;50.018;20.014;2023-02-02T14:49:55;10.15;;;4.53;;
25663;SDS011;13522;50.018;20.014;2023-02-02T14:53:16;9.78;;;4.85;;
25663;SDS011;13522;50.018;20.014;2023-02-02T14:56:41;11.90;;;4.65;;
25663;SDS011;13522;50.018;20.014;2023-02-02T14:59:57;8.85;;;4.18;;
25663;SDS011;13522;50.018;20.014;2023-02-02T15:03:32;8.18;;;3.95;;
25663;SDS011;13522;50.018;20.014;2023-02-02T15:07:34;13.43;;;5.68;;
25663;SDS011;13522;50.018;20.014;2023-02-02T15:11:01;12.13;;;5.13;;
25663;SDS011;13522;50.018;20.014;2023-02-02T15:14:39;10.90;;;4.55;;
25663;SDS011;13522;50.018;20.014;2023-02-02T15:18:01;10.50;;;4.73;;
25663;SDS011;13522;50.018;20.014;2023-02-02T15:21:21;11.98;;;5.48;;
25663;SDS011;13522;50.018;20.014;2023-02-02T15:24:41;12.85;;;6.28;;
25663;SDS011;13522;50.018;20.014;2023-02-02T15:27:59;13.90;;;5.63;;
25663;SDS011;13522;50.018;20.014;2023-02-02T15:31:20;12.85;;;4.65;;
25663;SDS011;13522;50.018;20.014;2023-02-02T15:34:39;11.73;;;4.85;;
25663;SDS011;13522;50.018;20.014;2023-02-02T15:37:56;9.98;;;4.58;;
25663;SDS011;13522;50.018;20.014;2023-02-02T15:41:17;11.48;;;4.45;;
25663;SDS011;13522;50.018;20.014;2023-02-02T15:44:36;9.03;;;4.40;;
25663;SDS011;13522;50.018;20.014;2023-02-02T15:47:52;7.57;;;3.87;;
25663;SDS011;13522;50.018;20.014;2023-02-02T15:51:14;8.63;;;4.60;;
25663;SDS011;13522;50.018;20.014;2023-02-02T15:54:29;10.28;;;4.35;;
25663;SDS011;13522;50.018;20.014;2023-02-02T15:57:45;10.68;;;3.80;;
25663;SDS011;13522;50.018;20.014;2023-02-02T16:01:01;6.28;;;3.30;;
25663;SDS011;13522;50.018;20.014;2023-02-02T16:04:28;5.50;;;2.93;;
25663;SDS011;13522;50.018;20.014;2023-02-02T16:07:46;9.48;;;3.30;;
25663;SDS011;13522;50.018;20.014;2023-02-02T16:11:03;10.20;;;3.15;;
25663;SDS011;13522;50.018;20.014;2023-02-02T16:14:24;7.75;;;3.50;;
25663;SDS011;13522;50.018;20.014;2023-02-02T16:17:39;7.03;;;2.78;;
25663;SDS011;13522;50.018;20.014;2023-02-02T16:20:52;7.03;;;3.10;;
25663;SDS011;13522;50.018;20.014;2023-02-02T16:24:09;6.53;;;2.75;;
25663;SDS011;13522;50.018;20.014;2023-02-02T16:27:25;6.13;;;2.60;;
25663;SDS011;13522;50.018;20.014;2023-02-02T16:30:39;5.43;;;2.50;;
25663;SDS011;13522;50.018;20.014;2023-02-02T16:33:56;5.28;;;2.65;;
25663;SDS011;13522;50.018;20.014;2023-02-02T16:37:12;6.65;;;2.20;;
25663;SDS011;13522;50.018;20.014;2023-02-02T16:40:31;4.93;;;2.03;;
25663;SDS011;13522;50.018;20.014;2023-02-02T16:43:48;7.13;;;2.90;;
25663;SDS011;13522;50.018;20.014;2023-02-02T16:47:02;7.10;;;3.68;;
25663;SDS011;13522;50.018;20.014;2023-02-02T16:50:27;10.20;;;3.95;;
25663;SDS011;13522;50.018;20.014;2023-02-02T16:54:10;8.23;;;4.23;;
25663;SDS011;13522;50.018;20.014;2023-02-02T16:57:32;9.55;;;4.25;;
25663;SDS011;13522;50.018;20.014;2023-02-02T17:00:50;10.80;;;5.18;;
25663;SDS011;13522;50.018;20.014;2023-02-02T17:04:17;8.93;;;4.07;;
25663;SDS011;13522;50.018;20.014;2023-02-02T17:07:35;9.80;;;4.08;;
25663;SDS011;13522;50.018;20.014;2023-02-02T17:11:17;7.48;;;3.20;;
25663;SDS011;13522;50.018;20.014;2023-02-02T17:14:48;7.60;;;2.70;;
25663;SDS011;13522;50.018;20.014;2023-02-02T17:18:23;4.15;;;2.20;;
25663;SDS011;13522;50.018;20.014;2023-02-02T17:21:36;6.95;;;2.60;;
25663;SDS011;13522;50.018;20.014;2023-02-02T17:24:51;7.83;;;2.25;;
25663;SDS011;13522;50.018;20.014;2023-02-02T17:28:05;4.88;;;2.25;;
25663;SDS011;13522;50.018;20.014;2023-02-02T17:31:20;6.75;;;2.30;;
25663;SDS011;13522;50.018;20.014;2023-02-02T17:34:32;4.85;;;2.45;;
25663;SDS011;13522;50.018;20.014;2023-02-02T17:37:45;7.53;;;2.85;;
25663;SDS011;13522;50.018;20.014;2023-02-02T17:40:58;5.18;;;2.50;;
25663;SDS011;13522;50.018;20.014;2023-02-02T17:44:11;6.03;;;2.68;;
25663;SDS011;13522;50.018;20.014;2023-02-02T17:47:24;5.88;;;2.60;;
25663;SDS011;13522;50.018;20.014;2023-02-02T17:50:36;4.60;;;2.35;;
25663;SDS011;13522;50.018;20.014;2023-02-02T17:54:18;8.78;;;2.90;;
25663;SDS011;13522;50.018;20.014;2023-02-02T17:57:30;4.90;;;2.75;;
25663;SDS011;13522;50.018;20.014;2023-02-02T18:00:42;5.98;;;2.50;;
25663;SDS011;13522;50.018;20.014;2023-02-02T18:03:56;5.75;;;2.65;;
25663;SDS011;13522;50.018;20.014;2023-02-02T18:07:10;6.78;;;2.93;;
25663;SDS011;13522;50.018;20.014;2023-02-02T18:10:22;8.33;;;3.05;;
25663;SDS011;13522;50.018;20.014;2023-02-02T18:13:34;6.85;;;3.23;;
25663;SDS011;13522;50.018;20.014;2023-02-02T18:17:16;6.45;;;3.28;;
25663;SDS011;13522;50.018;20.014;2023-02-02T18:21:15;9.10;;;3.73;;
25663;SDS011;13522;50.018;20.014;2023-02-02T18:25:16;11.65;;;4.95;;
25663;SDS011;13522;50.018;20.014;2023-02-02T18:28:28;10.33;;;5.30;;
25663;SDS011;13522;50.018;20.014;2023-02-02T18:31:41;10.90;;;6.30;;
25663;SDS011;13522;50.018;20.014;2023-02-02T18:34:53;12.85;;;6.48;;
25663;SDS011;13522;50.018;20.014;2023-02-02T18:38:05;14.58;;;6.73;;
25663;SDS011;13522;50.018;20.014;2023-02-02T18:41:18;13.50;;;6.58;;
25663;SDS011;13522;50.018;20.014;2023-02-02T18:45:18;12.95;;;5.68;;
25663;SDS011;13522;50.018;20.014;2023-02-02T18:48:41;11.15;;;4.63;;
25663;SDS011;13522;50.018;20.014;2023-02-02T18:51:54;13.43;;;5.70;;
25663;SDS011;13522;50.018;20.014;2023-02-02T18:55:07;13.13;;;5.75;;
25663;SDS011;13522;50.018;20.014;2023-02-02T18:58:23;12.70;;;5.37;;
25663;SDS011;13522;50.018;20.014;2023-02-02T19:01:35;10.90;;;5.83;;
25663;SDS011;13522;50.018;20.014;2023-02-02T19:04:48;9.38;;;5.25;;
25663;SDS011;13522;50.018;20.014;2023-02-02T19:08:15;12.88;;;5.85;;
25663;SDS011;13522;50.018;20.014;2023-02-02T19:11:32;8.38;;;5.00;;
25663;SDS011;13522;50.018;20.014;2023-02-02T19:14:46;11.18;;;5.45;;
25663;SDS011;13522;50.018;20.014;2023-02-02T19:17:59;14.28;;;5.38;;
25663;SDS011;13522;50.018;20.014;2023-02-02T19:21:15;11.63;;;5.90;;
25663;SDS011;13522;50.018;20.014;2023-02-02T19:24:31;13.95;;;6.68;;
25663;SDS011;13522;50.018;20.014;2023-02-02T19:27:46;10.50;;;6.03;;
25663;SDS011;13522;50.018;20.014;2023-02-02T19:31:00;10.80;;;6.33;;
25663;SDS011;13522;50.018;20.014;2023-02-02T19:34:17;12.03;;;5.98;;
25663;SDS011;13522;50.018;20.014;2023-02-02T19:37:31;12.53;;;6.20;;
25663;SDS011;13522;50.018;20.014;2023-02-02T19:40:49;12.35;;;5.58;;
25663;SDS011;13522;50.018;20.014;2023-02-02T19:44:10;10.08;;;5.78;;
25663;SDS011;13522;50.018;20.014;2023-02-02T19:47:23;11.50;;;5.10;;
25663;SDS011;13522;50.018;20.014;2023-02-02T19:50:41;10.38;;;5.60;;
25663;SDS011;13522;50.018;20.014;2023-02-02T19:53:53;11.88;;;5.78;;
25663;SDS011;13522;50.018;20.014;2023-02-02T19:57:13;14.68;;;5.60;;
25663;SDS011;13522;50.018;20.014;2023-02-02T20:00:31;11.03;;;6.28;;
25663;SDS011;13522;50.018;20.014;2023-02-02T20:07:01;14.10;;;6.93;;
25663;SDS011;13522;50.018;20.014;2023-02-02T20:10:22;13.15;;;6.53;;
25663;SDS011;13522;50.018;20.014;2023-02-02T20:13:37;14.20;;;6.88;;
25663;SDS011;13522;50.018;20.014;2023-02-02T20:16:55;12.88;;;6.63;;
25663;SDS011;13522;50.018;20.014;2023-02-02T20:20:31;14.33;;;7.05;;
25663;SDS011;13522;50.018;20.014;2023-02-02T20:23:47;15.33;;;7.25;;
25663;SDS011;13522;50.018;20.014;2023-02-02T20:27:01;17.28;;;7.65;;
25663;SDS011;13522;50.018;20.014;2023-02-02T20:30:23;14.23;;;7.38;;
25663;SDS011;13522;50.018;20.014;2023-02-02T20:33:41;14.35;;;7.80;;
25663;SDS011;13522;50.018;20.014;2023-02-02T20:36:58;14.65;;;7.18;;
25663;SDS011;13522;50.018;20.014;2023-02-02T20:40:24;16.10;;;7.80;;
25663;SDS011;13522;50.018;20.014;2023-02-02T20:43:38;19.80;;;8.15;;
25663;SDS011;13522;50.018;20.014;2023-02-02T20:46:51;17.23;;;8.10;;
